createdAt,value
2018-05-29T00:02:04.227Z,86.10
2018-05-29T00:04:32.506Z,86.10
2018-05-29T00:07:00.844Z,86.10
2018-05-29T00:09:29.166Z,86.00
2018-05-29T00:11:57.468Z,86.10
2018-05-29T00:14:26.551Z,86.00
2018-05-29T00:16:54.865Z,86.00
2018-05-29T00:19:23.180Z,86.20
2018-05-29T00:21:51.460Z,86.60
2018-05-29T00:24:19.777Z,86.80
2018-05-29T00:26:48.829Z,88.80
2018-05-29T00:29:17.160Z,88.80
2018-05-29T00:31:46.206Z,90.50
2018-05-29T00:34:14.541Z,90.50
2018-05-29T00:36:42.837Z,90.70
2018-05-29T00:39:11.153Z,90.80
2018-05-29T00:41:40.217Z,91.10
2018-05-29T00:44:08.520Z,90.70
2018-05-29T00:46:36.807Z,90.60
2018-05-29T00:49:05.124Z,90.30
2018-05-29T00:51:33.420Z,90.30
2018-05-29T00:54:01.783Z,90.10
2018-05-29T00:56:30.073Z,89.90
2018-05-29T00:58:58.393Z,89.70
2018-05-29T01:01:27.564Z,89.40
2018-05-29T01:03:55.902Z,89.00
2018-05-29T01:06:24.184Z,88.90
2018-05-29T01:08:52.496Z,88.90
2018-05-29T01:11:20.788Z,89.00
2018-05-29T01:13:49.101Z,89.30
2018-05-29T01:16:17.409Z,89.20
2018-05-29T01:18:45.727Z,89.10
2018-05-29T01:21:14.020Z,89.10
2018-05-29T01:23:42.327Z,89.60
2018-05-29T01:26:10.616Z,90.10
2018-05-29T01:28:38.923Z,90.10
2018-05-29T01:31:07.210Z,90.10
2018-05-29T01:33:35.539Z,90.10
2018-05-29T01:36:03.840Z,90.00
2018-05-29T01:38:32.157Z,89.80
2018-05-29T01:41:00.444Z,89.60
2018-05-29T01:43:29.516Z,90.30
2018-05-29T01:45:57.808Z,90.40
2018-05-29T01:48:26.085Z,90.60
2018-05-29T01:50:54.408Z,90.60
2018-05-29T01:53:22.692Z,90.40
2018-05-29T01:55:51.000Z,90.30
2018-05-29T01:58:19.288Z,90.10
2018-05-29T02:00:48.513Z,90.00
2018-05-29T02:03:16.817Z,90.00
2018-05-29T02:05:45.125Z,90.00
2018-05-29T02:08:13.410Z,89.50
2018-05-29T02:10:41.721Z,88.90
2018-05-29T02:13:10.000Z,89.20
2018-05-29T02:15:38.330Z,89.80
2018-05-29T02:18:06.617Z,90.00
2018-05-29T02:20:35.705Z,89.80
2018-05-29T02:23:04.000Z,89.80
2018-05-29T02:25:32.323Z,90.00
2018-05-29T02:28:00.610Z,90.00
2018-05-29T02:30:28.918Z,89.80
2018-05-29T02:32:57.224Z,89.80
2018-05-29T02:35:26.336Z,89.60
2018-05-29T02:37:54.637Z,89.60
2018-05-29T02:40:22.976Z,89.60
2018-05-29T02:42:52.021Z,89.40
2018-05-29T02:45:20.333Z,89.40
2018-05-29T02:47:49.402Z,89.30
2018-05-29T02:50:17.719Z,89.20
2018-05-29T02:52:46.775Z,89.60
2018-05-29T02:55:15.096Z,89.60
2018-05-29T02:57:43.396Z,89.60
2018-05-29T03:00:11.700Z,89.60
2018-05-29T03:02:40.009Z,89.60
2018-05-29T03:05:08.321Z,89.70
2018-05-29T03:07:36.608Z,90.00
2018-05-29T03:10:04.920Z,90.10
2018-05-29T03:12:33.200Z,90.20
2018-05-29T03:15:01.524Z,90.40
2018-05-29T03:17:29.833Z,90.40
2018-05-29T03:19:58.148Z,90.30
2018-05-29T03:22:27.224Z,90.20
2018-05-29T03:24:55.540Z,90.20
2018-05-29T03:27:24.588Z,90.30
2018-05-29T03:29:52.912Z,90.30
2018-05-29T03:32:21.201Z,90.40
2018-05-29T03:34:49.529Z,90.40
2018-05-29T03:37:17.840Z,90.30
2018-05-29T03:39:46.901Z,90.20
2018-05-29T03:42:15.224Z,90.20
2018-05-29T03:44:43.539Z,90.20
2018-05-29T03:47:11.871Z,90.20
2018-05-29T03:49:40.944Z,90.10
2018-05-29T03:52:09.277Z,90.10
2018-05-29T03:54:37.564Z,89.50
2018-05-29T03:57:05.882Z,90.30
2018-05-29T03:59:34.948Z,89.90
2018-05-29T04:02:03.271Z,89.80
2018-05-29T04:04:31.590Z,89.80
2018-05-29T04:06:59.911Z,89.80
2018-05-29T04:09:28.968Z,89.80
2018-05-29T04:11:57.295Z,89.80
2018-05-29T04:14:25.584Z,89.80
2018-05-29T04:16:53.896Z,89.70
2018-05-29T04:19:22.214Z,89.80
2018-05-29T04:21:51.306Z,89.80
2018-05-29T04:24:19.596Z,89.70
2018-05-29T04:26:48.686Z,89.60
2018-05-29T04:29:17.753Z,89.50
2018-05-29T04:31:46.073Z,89.40
2018-05-29T04:34:15.123Z,89.30
2018-05-29T04:36:43.445Z,89.30
2018-05-29T04:39:11.818Z,89.90
2018-05-29T04:41:40.280Z,90.00
2018-05-29T04:44:08.619Z,90.00
2018-05-29T04:46:37.028Z,89.90
2018-05-29T04:49:06.877Z,89.70
2018-05-29T04:51:35.247Z,89.60
2018-05-29T04:54:04.348Z,89.70
2018-05-29T04:56:33.533Z,89.80
2018-05-29T04:59:01.944Z,89.80
2018-05-29T05:01:30.323Z,89.80
2018-05-29T05:03:58.704Z,89.90
2018-05-29T05:06:27.060Z,89.90
2018-05-29T05:08:55.450Z,90.00
2018-05-29T05:11:23.796Z,89.90
2018-05-29T05:13:52.190Z,89.80
2018-05-29T05:16:20.519Z,89.50
2018-05-29T05:18:49.587Z,88.90
2018-05-29T05:21:17.915Z,89.60
2018-05-29T05:23:46.200Z,89.70
2018-05-29T05:26:14.491Z,89.60
2018-05-29T05:28:43.588Z,89.80
2018-05-29T05:31:12.649Z,89.30
2018-05-29T05:33:40.967Z,89.30
2018-05-29T05:36:10.023Z,88.20
2018-05-29T05:38:38.349Z,88.20
2018-05-29T05:41:06.641Z,87.60
2018-05-29T05:43:34.969Z,87.30
2018-05-29T05:46:03.326Z,86.90
2018-05-29T05:48:31.619Z,86.70
2018-05-29T05:50:59.908Z,85.50
2018-05-29T05:53:29.036Z,84.60
2018-05-29T05:55:57.305Z,84.60
2018-05-29T05:58:26.443Z,85.60
2018-05-29T06:00:54.724Z,84.80
2018-05-29T06:03:23.036Z,84.60
2018-05-29T06:05:51.312Z,84.40
2018-05-29T06:08:20.407Z,83.80
2018-05-29T06:10:48.702Z,83.70
2018-05-29T06:13:17.798Z,82.40
2018-05-29T06:15:46.861Z,82.70
2018-05-29T06:18:15.208Z,82.50
2018-05-29T06:20:43.494Z,83.10
2018-05-29T06:23:12.611Z,83.00
2018-05-29T06:25:40.964Z,83.20
2018-05-29T06:28:10.138Z,83.10
2018-05-29T06:30:38.494Z,83.10
2018-05-29T06:33:07.616Z,83.80
2018-05-29T06:35:35.953Z,83.90
2018-05-29T06:38:04.320Z,84.10
2018-05-29T06:40:32.673Z,84.30
2018-05-29T06:43:01.098Z,85.50
2018-05-29T06:45:29.446Z,84.80
2018-05-29T06:47:57.844Z,85.20
2018-05-29T06:50:26.194Z,85.80
2018-05-29T06:52:54.667Z,85.50
2018-05-29T06:55:23.053Z,85.60
2018-05-29T06:57:51.502Z,85.40
2018-05-29T07:00:19.801Z,85.80
2018-05-29T07:02:48.224Z,86.30
2018-05-29T07:05:16.572Z,86.60
2018-05-29T07:07:44.879Z,87.10
2018-05-29T07:10:13.936Z,87.70
2018-05-29T07:12:42.252Z,87.70
2018-05-29T07:15:10.569Z,87.70
2018-05-29T07:17:38.848Z,87.70
2018-05-29T07:20:07.169Z,87.90
2018-05-29T07:22:35.471Z,88.80
2018-05-29T07:25:04.544Z,89.80
2018-05-29T07:27:32.841Z,89.80
2018-05-29T07:30:01.157Z,90.00
2018-05-29T07:32:29.469Z,89.60
2018-05-29T07:34:58.573Z,90.30
2018-05-29T07:37:26.872Z,90.30
2018-05-29T07:39:55.968Z,91.00
2018-05-29T07:42:25.033Z,91.40
2018-05-29T07:44:53.366Z,91.40
2018-05-29T07:47:21.659Z,91.80
2018-05-29T07:49:49.980Z,91.80
2018-05-29T07:52:18.265Z,92.00
2018-05-29T07:54:47.388Z,90.80
2018-05-29T07:57:15.683Z,90.80
2018-05-29T07:59:44.011Z,90.50
2018-05-29T08:02:12.324Z,90.10
2018-05-29T08:04:40.644Z,90.40
2018-05-29T08:07:08.941Z,90.70
2018-05-29T08:09:38.037Z,89.90
2018-05-29T08:12:06.335Z,89.80
2018-05-29T08:14:35.409Z,90.50
2018-05-29T08:17:03.726Z,90.50
2018-05-29T08:19:32.053Z,90.80
2018-05-29T08:22:00.357Z,90.10
2018-05-29T08:24:29.444Z,88.50
2018-05-29T08:26:57.729Z,88.50
2018-05-29T08:29:26.825Z,89.00
2018-05-29T08:31:55.884Z,88.80
2018-05-29T08:34:24.188Z,88.80
2018-05-29T08:36:52.480Z,87.20
2018-05-29T08:39:20.859Z,87.50
2018-05-29T08:41:49.129Z,88.90
2018-05-29T08:44:18.215Z,89.70
2018-05-29T08:46:47.278Z,90.00
2018-05-29T08:49:15.604Z,90.00
2018-05-29T08:51:44.700Z,90.30
2018-05-29T08:54:13.753Z,90.50
2018-05-29T08:56:42.098Z,90.50
2018-05-29T08:59:11.135Z,90.50
2018-05-29T09:01:39.440Z,90.50
2018-05-29T09:04:07.751Z,89.30
2018-05-29T09:06:36.060Z,88.70
2018-05-29T09:09:04.332Z,87.30
2018-05-29T09:11:32.655Z,85.20
2018-05-29T09:14:01.721Z,85.10
2018-05-29T09:16:30.033Z,85.10
2018-05-29T09:18:59.080Z,84.40
2018-05-29T09:21:27.396Z,84.40
2018-05-29T09:23:55.680Z,84.60
2018-05-29T09:26:23.987Z,85.90
2018-05-29T09:28:52.268Z,86.50
2018-05-29T09:31:20.580Z,85.80
2018-05-29T09:33:48.865Z,86.60
2018-05-29T09:36:17.192Z,85.30
2018-05-29T09:38:45.529Z,85.20
2018-05-29T09:41:14.669Z,85.40
2018-05-29T09:43:42.958Z,85.40
2018-05-29T09:46:11.277Z,85.20
2018-05-29T09:48:39.556Z,86.00
2018-05-29T09:51:08.629Z,86.00
2018-05-29T09:53:36.920Z,85.70
2018-05-29T09:56:05.237Z,85.70
2018-05-29T09:58:33.513Z,85.40
2018-05-29T10:01:01.865Z,85.70
2018-05-29T10:03:30.193Z,85.30
2018-05-29T10:05:58.503Z,85.10
2018-05-29T10:08:26.790Z,85.60
2018-05-29T10:10:55.880Z,86.00
2018-05-29T10:13:24.164Z,86.00
2018-05-29T10:15:53.259Z,85.70
2018-05-29T10:18:21.584Z,85.60
2018-05-29T10:20:49.868Z,86.10
2018-05-29T10:23:18.186Z,86.50
2018-05-29T10:25:46.464Z,87.40
2018-05-29T10:28:14.788Z,87.10
2018-05-29T10:30:43.079Z,87.50
2018-05-29T10:33:11.408Z,86.90
2018-05-29T10:35:40.456Z,87.70
2018-05-29T10:38:08.760Z,87.70
2018-05-29T10:40:37.041Z,87.50
2018-05-29T10:43:05.364Z,87.70
2018-05-29T10:45:33.640Z,87.10
2018-05-29T10:48:01.973Z,86.80
2018-05-29T10:50:30.257Z,86.50
2018-05-29T10:52:59.356Z,87.00
2018-05-29T10:55:28.415Z,86.70
2018-05-29T10:57:56.736Z,86.70
2018-05-29T11:00:25.024Z,87.50
2018-05-29T11:02:53.344Z,87.10
2018-05-29T11:05:21.619Z,87.00
2018-05-29T11:07:49.944Z,86.70
2018-05-29T11:10:18.250Z,87.40
2018-05-29T11:12:46.580Z,87.70
2018-05-29T11:15:14.864Z,86.20
2018-05-29T11:17:43.164Z,86.70
2018-05-29T11:20:11.530Z,86.90
2018-05-29T11:22:39.792Z,87.10
2018-05-29T11:25:08.861Z,88.20
2018-05-29T11:27:37.185Z,87.40
2018-05-29T11:30:06.240Z,86.40
2018-05-29T11:32:34.536Z,86.40
2018-05-29T11:35:02.823Z,86.00
2018-05-29T11:37:31.137Z,86.40
2018-05-29T11:39:59.431Z,85.50
2018-05-29T11:42:27.757Z,85.00
2018-05-29T11:44:56.807Z,85.00
2018-05-29T11:47:25.135Z,85.00
2018-05-29T11:49:54.193Z,85.10
2018-05-29T11:52:22.517Z,85.00
2018-05-29T11:54:50.829Z,85.60
2018-05-29T11:57:19.879Z,86.00
2018-05-29T11:59:48.953Z,85.30
2018-05-29T12:02:17.241Z,85.20
2018-05-29T12:04:46.324Z,86.10
2018-05-29T12:07:14.621Z,86.00
2018-05-29T12:09:43.719Z,85.60
2018-05-29T12:12:24.606Z,85.40
2018-05-29T12:14:52.944Z,85.40
2018-05-29T12:17:21.244Z,85.00
2018-05-29T12:19:50.317Z,85.80
2018-05-29T12:22:18.634Z,85.70
2018-05-29T12:24:46.956Z,85.60
2018-05-29T12:27:15.268Z,85.30
2018-05-29T12:29:43.590Z,85.90
2018-05-29T12:32:11.868Z,84.90
2018-05-29T12:34:40.181Z,85.40
2018-05-29T12:37:08.457Z,85.50
2018-05-29T12:39:36.766Z,85.90
2018-05-29T12:42:05.075Z,84.50
2018-05-29T12:44:33.382Z,84.50
2018-05-29T12:47:01.660Z,83.70
2018-05-29T12:49:29.965Z,82.70
2018-05-29T12:51:59.018Z,82.20
2018-05-29T12:54:27.334Z,82.10
2018-05-29T12:56:56.409Z,79.20
2018-05-29T12:59:24.724Z,79.20
2018-05-29T13:01:53.019Z,79.80
2018-05-29T13:04:21.337Z,77.70
2018-05-29T13:06:49.619Z,76.90
2018-05-29T13:09:17.932Z,76.30
2018-05-29T13:11:46.222Z,76.10
2018-05-29T13:14:14.533Z,73.60
2018-05-29T13:16:42.822Z,74.40
2018-05-29T13:19:11.148Z,75.20
2018-05-29T13:21:39.440Z,74.20
2018-05-29T13:24:07.764Z,74.50
2018-05-29T13:26:36.039Z,74.10
2018-05-29T13:29:04.376Z,74.80
2018-05-29T13:31:32.651Z,75.10
2018-05-29T13:34:00.962Z,74.50
2018-05-29T13:36:29.259Z,73.40
2018-05-29T13:38:57.568Z,74.30
2018-05-29T13:41:25.872Z,72.30
2018-05-29T13:43:54.180Z,71.70
2018-05-29T13:46:22.472Z,72.00
2018-05-29T13:48:51.544Z,73.50
2018-05-29T13:51:19.849Z,73.50
2018-05-29T13:53:48.945Z,71.90
2018-05-29T13:56:18.009Z,73.80
2018-05-29T13:58:46.317Z,73.80
2018-05-29T14:01:15.360Z,71.70
2018-05-29T14:03:43.660Z,71.70
2018-05-29T14:06:11.973Z,71.20
2018-05-29T14:08:40.371Z,71.60
2018-05-29T14:11:08.728Z,70.70
2018-05-29T14:13:37.074Z,70.50
2018-05-29T14:16:05.384Z,71.40
2018-05-29T14:18:34.434Z,73.00
2018-05-29T14:21:02.750Z,73.00
2018-05-29T14:23:31.807Z,73.40
2018-05-29T14:26:00.121Z,73.30
2018-05-29T14:28:29.202Z,73.60
2018-05-29T14:30:57.606Z,73.50
2018-05-29T14:33:26.656Z,73.40
2018-05-29T14:35:54.974Z,73.30
2018-05-29T14:38:24.031Z,73.50
2018-05-29T14:40:52.353Z,73.40
2018-05-29T14:43:21.405Z,73.20
2018-05-29T14:45:49.720Z,73.20
2018-05-29T14:48:18.775Z,73.40
2018-05-29T14:50:47.080Z,73.40
2018-05-29T14:53:15.367Z,73.20
2018-05-29T14:55:43.695Z,73.70
2018-05-29T14:58:11.979Z,72.90
2018-05-29T15:00:40.287Z,70.80
2018-05-29T15:03:08.569Z,69.30
2018-05-29T15:05:37.648Z,71.60
2018-05-29T15:08:05.945Z,71.10
2018-05-29T15:10:35.016Z,66.40
2018-05-29T15:13:03.296Z,66.40
2018-05-29T15:15:31.627Z,64.20
2018-05-29T15:17:59.907Z,63.10
2018-05-29T15:20:28.220Z,63.50
2018-05-29T15:22:56.513Z,63.60
2018-05-29T15:25:24.849Z,63.30
2018-05-29T15:27:53.136Z,63.30
2018-05-29T15:30:21.457Z,64.50
2018-05-29T15:32:50.530Z,63.90
2018-05-29T15:35:18.927Z,63.80
2018-05-29T15:37:48.000Z,63.70
2018-05-29T15:40:16.311Z,63.60
2018-05-29T15:42:45.356Z,59.90
2018-05-29T15:45:13.667Z,59.90
2018-05-29T15:47:41.972Z,59.20
2018-05-29T15:50:10.280Z,58.70
2018-05-29T15:52:38.564Z,58.50
2018-05-29T15:55:06.885Z,57.10
2018-05-29T15:57:35.927Z,55.50
2018-05-29T16:00:04.248Z,55.50
2018-05-29T16:02:32.530Z,54.60
2018-05-29T16:05:00.840Z,55.50
2018-05-29T16:07:29.129Z,55.10
2018-05-29T16:09:57.441Z,54.80
2018-05-29T16:12:25.729Z,56.10
2018-05-29T16:14:54.031Z,56.60
2018-05-29T16:17:22.319Z,57.60
2018-05-29T16:19:50.600Z,56.30
2018-05-29T16:22:18.922Z,55.50
2018-05-29T16:24:47.207Z,56.60
2018-05-29T16:27:15.529Z,56.80
2018-05-29T16:29:43.833Z,58.50
2018-05-29T16:32:12.156Z,54.70
2018-05-29T16:34:40.447Z,55.50
2018-05-29T16:37:08.798Z,55.40
2018-05-29T16:39:37.934Z,54.30
2018-05-29T16:42:06.262Z,55.00
2018-05-29T16:44:34.547Z,55.70
2018-05-29T16:47:02.871Z,56.50
2018-05-29T16:49:31.169Z,56.10
2018-05-29T16:51:59.473Z,56.10
2018-05-29T16:54:27.760Z,55.50
2018-05-29T16:56:56.105Z,57.80
2018-05-29T16:59:24.391Z,56.50
2018-05-29T17:01:52.700Z,55.50
2018-05-29T17:04:21.001Z,53.60
2018-05-29T17:06:49.309Z,53.90
2018-05-29T17:09:17.592Z,54.10
2018-05-29T17:11:45.912Z,52.80
2018-05-29T17:14:14.967Z,53.60
2018-05-29T17:16:43.284Z,53.60
2018-05-29T17:19:11.568Z,54.70
2018-05-29T17:21:40.644Z,54.50
2018-05-29T17:24:08.921Z,54.40
2018-05-29T17:26:37.244Z,55.20
2018-05-29T17:29:05.630Z,56.20
2018-05-29T17:31:33.945Z,54.50
2018-05-29T17:34:02.227Z,55.90
2018-05-29T17:36:30.541Z,56.40
2018-05-29T17:38:58.826Z,58.00
2018-05-29T17:41:27.143Z,58.70
2018-05-29T17:43:55.437Z,59.90
2018-05-29T17:46:23.745Z,58.50
2018-05-29T17:48:52.837Z,59.00
2018-05-29T17:51:21.134Z,59.00
2018-05-29T17:53:49.417Z,61.60
2018-05-29T17:56:17.732Z,63.00
2018-05-29T17:58:46.038Z,62.30
2018-05-29T18:01:15.128Z,63.70
2018-05-29T18:03:43.404Z,63.60
2018-05-29T18:06:11.708Z,64.10
2018-05-29T18:08:40.008Z,64.00
2018-05-29T18:11:08.356Z,64.30
2018-05-29T18:13:36.710Z,65.10
2018-05-29T18:16:05.036Z,65.30
2018-05-29T18:18:33.313Z,65.60
2018-05-29T18:21:01.621Z,66.70
2018-05-29T18:23:29.902Z,67.20
2018-05-29T18:25:58.209Z,67.80
2018-05-29T18:28:27.261Z,67.90
2018-05-29T18:30:55.551Z,67.80
2018-05-29T18:33:23.864Z,67.80
2018-05-29T18:35:52.159Z,69.30
2018-05-29T18:38:20.484Z,70.80
2018-05-29T18:40:48.776Z,71.90
2018-05-29T18:43:17.088Z,72.70
2018-05-29T18:45:45.368Z,73.10
2018-05-29T18:48:13.679Z,73.80
2018-05-29T18:50:41.957Z,75.00
2018-05-29T18:53:10.272Z,76.20
2018-05-29T18:55:39.335Z,77.90
2018-05-29T18:58:07.651Z,77.90
2018-05-29T19:00:36.700Z,79.10
2018-05-29T19:03:05.004Z,79.10
2018-05-29T19:05:33.301Z,79.70
2018-05-29T19:08:01.626Z,79.50
2018-05-29T19:10:29.915Z,79.80
2018-05-29T19:12:58.223Z,80.00
2018-05-29T19:15:27.259Z,80.80
2018-05-29T19:17:55.577Z,80.80
2018-05-29T19:20:23.875Z,81.10
2018-05-29T19:22:53.033Z,82.20
2018-05-29T19:25:21.285Z,82.10
2018-05-29T19:27:49.657Z,82.80
2018-05-29T19:30:17.985Z,83.20
2018-05-29T19:32:46.319Z,83.40
2018-05-29T19:35:14.663Z,83.70
2018-05-29T19:37:42.952Z,83.50
2018-05-29T19:40:11.237Z,83.40
2018-05-29T19:42:39.556Z,83.70
2018-05-29T19:45:07.838Z,83.90
2018-05-29T19:47:36.156Z,84.00
2018-05-29T19:50:04.455Z,84.60
2018-05-29T19:52:32.765Z,85.20
2018-05-29T19:55:01.066Z,85.40
2018-05-29T19:57:29.384Z,85.40
2018-05-29T19:59:57.657Z,85.20
2018-05-29T20:02:25.972Z,85.10
2018-05-29T20:04:54.259Z,85.10
2018-05-29T20:07:22.573Z,85.10
2018-05-29T20:09:51.634Z,86.20
2018-05-29T20:12:19.953Z,86.10
2018-05-29T20:14:48.236Z,86.40
2018-05-29T20:17:16.551Z,86.70
2018-05-29T20:19:44.841Z,86.90
2018-05-29T20:22:13.132Z,87.30
2018-05-29T20:24:41.451Z,87.50
2018-05-29T20:27:09.740Z,87.50
2018-05-29T20:29:38.057Z,87.70
2018-05-29T20:32:06.346Z,87.70
2018-05-29T20:34:35.420Z,87.50
2018-05-29T20:37:03.700Z,87.40
2018-05-29T20:39:33.584Z,87.10
2018-05-29T20:42:01.873Z,86.90
2018-05-29T20:44:30.177Z,86.80
2018-05-29T20:46:58.455Z,86.60
2018-05-29T20:49:26.769Z,86.50
2018-05-29T20:51:55.060Z,86.50
2018-05-29T20:54:23.365Z,86.60
2018-05-29T20:56:51.656Z,86.80
2018-05-29T20:59:19.964Z,86.90
2018-05-29T21:01:49.018Z,87.10
2018-05-29T21:04:17.369Z,87.00
2018-05-29T21:06:45.644Z,87.00
2018-05-29T21:09:13.983Z,87.20
2018-05-29T21:11:43.033Z,87.70
2018-05-29T21:14:11.356Z,87.60
2018-05-29T21:16:39.660Z,87.70
2018-05-29T21:19:07.971Z,87.70
2018-05-29T21:21:36.253Z,87.50
2018-05-29T21:24:04.558Z,87.60
2018-05-29T21:26:33.599Z,87.60
2018-05-29T21:29:01.904Z,87.60
2018-05-29T21:31:30.199Z,87.20
2018-05-29T21:33:58.504Z,87.20
2018-05-29T21:36:26.804Z,87.20
2018-05-29T21:38:55.136Z,87.30
2018-05-29T21:41:24.250Z,87.40
2018-05-29T21:43:52.572Z,87.30
2018-05-29T21:46:20.913Z,87.60
2018-05-29T21:48:49.314Z,87.80
2018-05-29T21:51:17.665Z,87.60
2018-05-29T21:53:46.057Z,87.60
2018-05-29T21:56:14.417Z,88.10
2018-05-29T21:58:43.529Z,89.00
2018-05-29T22:01:11.867Z,89.00
2018-05-29T22:03:40.225Z,89.10
2018-05-29T22:06:08.536Z,89.00
2018-05-29T22:08:36.840Z,88.90
2018-05-29T22:11:05.134Z,88.90
2018-05-29T22:13:33.447Z,88.40
2018-05-29T22:16:01.728Z,89.00
2018-05-29T22:18:30.026Z,89.30
2018-05-29T22:20:58.360Z,89.10
2018-05-29T22:23:26.652Z,89.00
2018-05-29T22:25:54.963Z,89.10
2018-05-29T22:28:24.017Z,89.10
2018-05-29T22:30:52.321Z,89.00
2018-05-29T22:33:20.611Z,88.90
2018-05-29T22:35:49.691Z,88.80
2018-05-29T22:38:17.971Z,88.80
2018-05-29T22:40:46.300Z,89.30
2018-05-29T22:43:14.610Z,89.60
2018-05-29T22:45:42.929Z,89.70
2018-05-29T22:48:11.214Z,88.70
2018-05-29T22:50:39.532Z,88.90
2018-05-29T22:53:07.815Z,89.20
2018-05-29T22:55:36.154Z,89.70
2018-05-29T22:58:04.473Z,90.20
2018-05-29T23:00:32.781Z,90.40
2018-05-29T23:03:01.868Z,90.00
2018-05-29T23:05:30.964Z,90.10
2018-05-29T23:08:00.012Z,90.10
2018-05-29T23:10:28.315Z,90.10
2018-05-29T23:12:56.612Z,89.90
2018-05-29T23:15:24.973Z,89.10
2018-05-29T23:17:53.268Z,89.20
2018-05-29T23:20:22.340Z,89.50
2018-05-29T23:22:50.620Z,89.50
2018-05-29T23:25:18.940Z,90.00
2018-05-29T23:27:47.235Z,90.20
2018-05-29T23:30:15.542Z,90.20
2018-05-29T23:32:43.821Z,90.10
2018-05-29T23:35:12.144Z,90.00
2018-05-29T23:37:40.440Z,89.80
2018-05-29T23:40:08.746Z,90.10
2018-05-29T23:42:37.831Z,89.50
2018-05-29T23:45:06.155Z,89.40
2018-05-29T23:47:35.210Z,89.70
2018-05-29T23:50:03.519Z,89.70
2018-05-29T23:52:31.799Z,89.80
2018-05-29T23:55:00.897Z,90.00
2018-05-29T23:57:29.949Z,90.00
2018-05-29T23:59:58.258Z,90.00
